createdAt,value
2022-11-20T00:01:25.681Z,11.35
2022-11-20T00:03:54.336Z,11.82
2022-11-20T00:06:22.064Z,12.23
2022-11-20T00:08:49.207Z,11.20
2022-11-20T00:11:21.143Z,10.13
2022-11-20T00:13:50.365Z,9.65
2022-11-20T00:16:19.808Z,9.55
2022-11-20T00:21:35.915Z,11.15
2022-11-20T00:24:02.702Z,9.73
2022-11-20T00:26:29.894Z,9.20
2022-11-20T00:29:05.619Z,10.13
2022-11-20T00:31:34.172Z,10.52
2022-11-20T00:34:03.507Z,9.60
2022-11-20T00:36:34.076Z,8.65
2022-11-20T00:39:03.070Z,9.43
2022-11-20T00:41:33.031Z,8.95
2022-11-20T00:43:59.946Z,9.52
2022-11-20T00:46:28.744Z,8.75
2022-11-20T00:48:55.657Z,8.75
2022-11-20T00:51:24.519Z,9.60
2022-11-20T00:53:53.609Z,10.55
2022-11-20T00:56:20.723Z,9.05
2022-11-20T00:58:51.399Z,9.35
2022-11-20T01:01:26.957Z,8.82
2022-11-20T01:03:58.285Z,8.23
2022-11-20T01:06:35.811Z,9.07
2022-11-20T01:09:11.979Z,9.40
2022-11-20T01:11:45.386Z,10.88
2022-11-20T01:14:20.189Z,8.95
2022-11-20T01:16:50.911Z,9.88
2022-11-20T01:19:23.787Z,9.23
2022-11-20T01:21:55.611Z,10.32
2022-11-20T01:24:25.448Z,12.68
2022-11-20T01:26:53.036Z,11.93
2022-11-20T01:29:23.372Z,9.38
2022-11-20T01:31:53.602Z,11.90
2022-11-20T01:34:21.467Z,13.27
2022-11-20T01:36:49.835Z,10.70
2022-11-20T01:39:24.619Z,12.55
2022-11-20T01:42:11.407Z,11.70
2022-11-20T01:44:59.278Z,10.57
2022-11-20T01:47:41.042Z,11.65
2022-11-20T01:52:49.597Z,12.02
2022-11-20T01:55:22.988Z,12.38
2022-11-20T01:57:52.739Z,12.82
2022-11-20T02:00:21.660Z,13.10
2022-11-20T02:03:04.834Z,13.15
2022-11-20T02:06:00.187Z,13.30
2022-11-20T02:08:34.561Z,13.35
2022-11-20T02:11:01.184Z,13.13
2022-11-20T02:13:45.479Z,13.25
2022-11-20T02:16:45.209Z,13.80
2022-11-20T02:19:30.175Z,13.93
2022-11-20T02:22:05.613Z,12.85
2022-11-20T02:24:34.824Z,13.05
2022-11-20T02:27:13.799Z,12.30
2022-11-20T02:29:47.490Z,12.93
2022-11-20T02:32:34.089Z,12.48
2022-11-20T02:35:09.843Z,11.82
2022-11-20T02:37:42.853Z,11.70
2022-11-20T02:40:09.991Z,12.55
2022-11-20T02:42:37.602Z,12.50
2022-11-20T02:45:08.073Z,11.65
2022-11-20T02:47:34.957Z,14.15
2022-11-20T02:50:01.568Z,11.60
2022-11-20T02:52:30.564Z,12.57
2022-11-20T02:54:57.062Z,11.85
2022-11-20T02:57:25.859Z,13.45
2022-11-20T02:59:52.548Z,11.48
2022-11-20T03:02:21.581Z,11.88
2022-11-20T03:04:48.102Z,11.70
2022-11-20T03:07:14.890Z,12.48
2022-11-20T03:09:46.286Z,11.82
2022-11-20T03:12:15.494Z,12.57
2022-11-20T03:14:41.988Z,11.60
2022-11-20T03:17:08.534Z,12.68
2022-11-20T03:19:35.514Z,12.52
2022-11-20T03:22:04.260Z,12.73
2022-11-20T03:24:30.864Z,11.18
2022-11-20T03:27:02.386Z,11.52
2022-11-20T03:29:28.904Z,12.05
2022-11-20T03:31:55.561Z,11.45
2022-11-20T03:34:26.910Z,13.68
2022-11-20T03:36:53.490Z,11.00
2022-11-20T03:39:20.263Z,12.27
2022-11-20T03:41:49.444Z,12.25
2022-11-20T03:44:15.997Z,12.57
2022-11-20T03:46:49.872Z,11.30
2022-11-20T03:49:16.444Z,12.77
2022-11-20T03:51:45.736Z,13.27
2022-11-20T03:54:14.394Z,13.10
2022-11-20T03:56:43.180Z,11.20
2022-11-20T03:59:11.367Z,13.23
2022-11-20T04:01:38.741Z,11.65
2022-11-20T04:04:08.148Z,11.82
2022-11-20T04:09:02.809Z,11.70
2022-11-20T04:11:34.142Z,11.70
2022-11-20T04:14:03.273Z,12.15
2022-11-20T04:16:32.251Z,11.55
2022-11-20T04:19:04.830Z,12.25
2022-11-20T04:21:31.630Z,10.20
2022-11-20T04:23:59.059Z,11.38
2022-11-20T04:26:27.387Z,11.55
2022-11-20T04:28:57.201Z,10.65
2022-11-20T04:31:26.808Z,11.48
2022-11-20T04:33:56.147Z,10.63
2022-11-20T04:39:00.368Z,10.65
2022-11-20T04:41:30.218Z,10.50
2022-11-20T04:44:03.938Z,10.13
2022-11-20T04:46:35.915Z,10.35
2022-11-20T04:49:05.079Z,10.73
2022-11-20T04:51:36.934Z,10.48
2022-11-20T04:54:03.674Z,10.20
2022-11-20T04:56:30.164Z,9.98
2022-11-20T04:58:59.662Z,10.32
2022-11-20T05:01:28.535Z,10.00
2022-11-20T05:03:55.225Z,11.27
2022-11-20T05:06:22.593Z,10.98
2022-11-20T05:08:49.271Z,12.32
2022-11-20T05:11:20.593Z,11.18
2022-11-20T05:13:50.564Z,12.35
2022-11-20T05:16:23.162Z,11.63
2022-11-20T05:18:53.326Z,11.68
2022-11-20T05:21:20.218Z,11.30
2022-11-20T05:23:47.005Z,10.48
2022-11-20T05:26:16.640Z,12.30
2022-11-20T05:28:43.648Z,10.10
2022-11-20T05:31:25.040Z,11.32
2022-11-20T05:33:53.543Z,10.88
2022-11-20T05:36:22.307Z,10.90
2022-11-20T05:38:51.229Z,11.65
2022-11-20T05:41:20.326Z,9.93
2022-11-20T05:43:51.175Z,11.02
2022-11-20T05:46:27.862Z,9.77
2022-11-20T05:48:58.777Z,10.30
2022-11-20T05:51:26.035Z,9.80
2022-11-20T05:53:54.798Z,9.60
2022-11-20T05:56:22.991Z,10.43
2022-11-20T05:58:52.254Z,9.70
2022-11-20T06:01:21.672Z,11.38
2022-11-20T06:03:48.960Z,10.57
2022-11-20T06:06:16.520Z,9.95
2022-11-20T06:08:43.286Z,10.32
2022-11-20T06:11:12.833Z,9.60
2022-11-20T06:13:42.844Z,10.23
2022-11-20T06:16:16.853Z,9.25
2022-11-20T06:18:46.074Z,9.95
2022-11-20T06:21:18.086Z,10.25
2022-11-20T06:23:46.127Z,10.88
2022-11-20T06:26:22.735Z,9.32
2022-11-20T06:28:53.666Z,9.80
2022-11-20T06:31:22.960Z,9.02
2022-11-20T06:33:50.265Z,9.25
2022-11-20T06:36:23.951Z,9.55
2022-11-20T06:38:50.667Z,9.75
2022-11-20T06:41:21.731Z,9.70
2022-11-20T06:43:48.604Z,9.07
2022-11-20T06:46:23.183Z,10.02
2022-11-20T06:48:52.374Z,9.48
2022-11-20T06:51:19.677Z,10.80
2022-11-20T06:53:46.520Z,9.65
2022-11-20T06:56:13.095Z,10.55
2022-11-20T06:58:39.672Z,10.45
2022-11-20T07:01:12.000Z,10.02
2022-11-20T07:03:41.760Z,10.98
2022-11-20T07:06:11.168Z,10.02
2022-11-20T07:11:09.516Z,9.95
2022-11-20T07:13:36.385Z,9.68
2022-11-20T07:16:05.852Z,10.10
2022-11-20T07:18:32.518Z,9.73
2022-11-20T07:21:07.439Z,8.85
2022-11-20T07:23:36.815Z,10.65
2022-11-20T07:26:11.749Z,10.07
2022-11-20T07:28:39.194Z,10.57
2022-11-20T07:31:07.869Z,11.10
2022-11-20T07:33:35.386Z,11.13
2022-11-20T07:36:04.632Z,10.73
2022-11-20T07:38:31.290Z,10.45
2022-11-20T07:40:58.661Z,10.45
2022-11-20T07:43:26.478Z,10.95
2022-11-20T07:45:53.213Z,9.98
2022-11-20T07:48:24.370Z,11.00
2022-11-20T07:50:53.122Z,10.60
2022-11-20T07:53:22.780Z,10.80
2022-11-20T07:55:53.509Z,10.35
2022-11-20T07:58:25.343Z,11.50
2022-11-20T08:00:54.212Z,10.82
2022-11-20T08:03:26.009Z,11.73
2022-11-20T08:05:57.424Z,11.40
2022-11-20T08:08:23.958Z,10.90
2022-11-20T08:10:50.541Z,9.82
2022-11-20T08:13:38.136Z,10.23
2022-11-20T08:16:04.990Z,9.52
2022-11-20T08:18:32.644Z,10.02
2022-11-20T08:21:05.700Z,11.10
2022-11-20T08:23:32.445Z,11.65
2022-11-20T08:26:01.201Z,12.55
2022-11-20T08:28:27.742Z,11.13
2022-11-20T08:31:03.071Z,10.38
2022-11-20T08:33:36.873Z,11.43
2022-11-20T08:36:09.658Z,10.93
2022-11-20T08:38:36.188Z,10.38
2022-11-20T08:41:24.540Z,10.68
2022-11-20T08:43:56.575Z,11.13
2022-11-20T08:46:27.369Z,11.30
2022-11-20T08:48:57.148Z,11.50
2022-11-20T08:51:23.660Z,11.57
2022-11-20T08:53:52.472Z,10.55
2022-11-20T08:56:21.571Z,11.02
2022-11-20T09:01:34.667Z,11.93
2022-11-20T09:04:01.242Z,11.73
2022-11-20T09:06:28.045Z,12.40
2022-11-20T09:09:00.714Z,12.13
2022-11-20T09:11:30.086Z,10.90
2022-11-20T09:13:56.660Z,11.77
2022-11-20T09:16:25.873Z,10.98
2022-11-20T09:21:38.833Z,11.40
2022-11-20T09:24:06.180Z,11.88
2022-11-20T09:26:32.726Z,12.48
2022-11-20T09:28:59.224Z,12.00
2022-11-20T09:31:27.243Z,13.90
2022-11-20T09:33:53.788Z,13.60
2022-11-20T09:36:23.563Z,11.75
2022-11-20T09:38:50.091Z,12.02
2022-11-20T09:41:28.360Z,11.98
2022-11-20T09:44:03.899Z,13.30
2022-11-20T09:46:33.404Z,11.80
2022-11-20T09:49:26.299Z,11.75
2022-11-20T09:52:00.929Z,12.25
2022-11-20T09:54:35.234Z,12.25
2022-11-20T09:57:12.127Z,12.02
2022-11-20T09:59:50.596Z,12.63
2022-11-20T10:02:36.268Z,12.23
2022-11-20T10:05:02.734Z,14.85
2022-11-20T10:07:56.140Z,13.45
2022-11-20T10:10:43.822Z,14.15
2022-11-20T10:13:34.589Z,12.23
2022-11-20T10:16:22.533Z,13.50
2022-11-20T10:18:55.454Z,14.57
2022-11-20T10:21:42.824Z,12.57
2022-11-20T10:24:40.068Z,12.93
2022-11-20T10:27:54.152Z,13.85
2022-11-20T10:30:25.843Z,12.48
2022-11-20T10:33:20.708Z,13.23
2022-11-20T10:35:56.544Z,13.30
2022-11-20T10:38:31.584Z,12.82
2022-11-20T10:41:21.222Z,12.88
2022-11-20T10:43:50.652Z,12.85
2022-11-20T10:46:21.029Z,12.93
2022-11-20T10:48:48.382Z,13.40
2022-11-20T10:51:33.427Z,12.95
2022-11-20T10:54:02.925Z,13.00
2022-11-20T10:56:49.679Z,12.10
2022-11-20T10:59:40.988Z,14.32
2022-11-20T11:02:23.052Z,13.38
2022-11-20T11:04:56.036Z,11.70
2022-11-20T11:07:28.559Z,12.82
2022-11-20T11:09:59.201Z,12.40
2022-11-20T11:12:29.738Z,13.50
2022-11-20T11:15:00.986Z,12.48
2022-11-20T11:17:29.437Z,11.60
2022-11-20T11:20:07.586Z,15.15
2022-11-20T11:22:48.676Z,12.48
2022-11-20T11:25:24.313Z,14.32
2022-11-20T11:27:52.502Z,12.77
2022-11-20T11:30:24.306Z,11.75
2022-11-20T11:32:53.163Z,13.40
2022-11-20T11:35:21.204Z,12.35
2022-11-20T11:37:49.328Z,11.73
2022-11-20T11:40:25.663Z,12.77
2022-11-20T11:42:59.852Z,12.18
2022-11-20T11:45:27.068Z,13.38
2022-11-20T11:47:56.945Z,13.32
2022-11-20T11:50:25.919Z,12.35
2022-11-20T11:53:03.160Z,13.35
2022-11-20T11:55:59.740Z,12.30
2022-11-20T11:58:47.047Z,12.65
2022-11-20T12:01:32.940Z,12.80
2022-11-20T12:04:17.972Z,12.82
2022-11-20T12:07:06.110Z,13.05
2022-11-20T12:09:52.820Z,14.00
2022-11-20T12:12:23.335Z,12.45
2022-11-20T12:14:54.080Z,10.98
2022-11-20T12:17:23.201Z,10.40
2022-11-20T12:22:35.967Z,10.38
2022-11-20T12:25:17.655Z,8.80
2022-11-20T12:28:08.416Z,7.00
2022-11-20T12:31:12.328Z,10.70
2022-11-20T12:33:48.360Z,10.23
2022-11-20T12:36:14.828Z,10.40
2022-11-20T12:38:44.144Z,9.80
2022-11-20T12:41:51.281Z,9.95
2022-11-20T12:44:45.336Z,9.68
2022-11-20T12:47:23.692Z,8.57
2022-11-20T12:50:14.707Z,9.10
2022-11-20T12:53:20.978Z,9.68
2022-11-20T12:56:12.628Z,9.70
2022-11-20T12:58:48.823Z,9.57
2022-11-20T13:01:40.729Z,10.35
2022-11-20T13:04:36.954Z,12.70
2022-11-20T13:07:25.838Z,11.35
2022-11-20T13:09:53.255Z,10.10
2022-11-20T13:12:41.751Z,12.15
2022-11-20T13:15:36.923Z,10.93
2022-11-20T13:18:12.035Z,9.57
2022-11-20T13:20:44.505Z,9.98
2022-11-20T13:23:24.735Z,8.57
2022-11-20T13:25:53.855Z,7.70
2022-11-20T13:30:52.624Z,8.07
2022-11-20T13:33:39.170Z,8.00
2022-11-20T13:36:23.953Z,8.40
2022-11-20T13:38:53.126Z,8.65
2022-11-20T13:44:12.354Z,8.80
2022-11-20T13:46:45.728Z,8.20
2022-11-20T13:49:24.534Z,10.27
2022-11-20T13:51:54.939Z,9.60
2022-11-20T13:54:45.114Z,10.23
2022-11-20T13:57:37.885Z,10.13
2022-11-20T14:00:17.141Z,10.85
2022-11-20T14:02:45.275Z,11.25
2022-11-20T14:05:24.220Z,12.05
2022-11-20T14:07:52.871Z,11.57
2022-11-20T14:10:32.117Z,11.98
2022-11-20T14:12:59.845Z,12.95
2022-11-20T14:15:39.223Z,11.77
2022-11-20T14:18:22.979Z,13.27
2022-11-20T14:20:52.019Z,14.73
2022-11-20T14:23:30.816Z,12.52
2022-11-20T14:25:57.878Z,13.57
2022-11-20T14:28:32.009Z,13.90
2022-11-20T14:31:01.056Z,13.23
2022-11-20T14:33:28.391Z,14.40
2022-11-20T14:35:57.533Z,13.15
2022-11-20T14:38:34.587Z,13.70
2022-11-20T14:41:21.859Z,11.68
2022-11-20T14:43:55.600Z,11.18
2022-11-20T14:46:23.010Z,11.35
2022-11-20T14:48:56.923Z,13.10
2022-11-20T14:51:35.793Z,12.70
2022-11-20T14:54:16.822Z,10.15
2022-11-20T14:56:54.681Z,10.57
2022-11-20T14:59:29.824Z,10.43
2022-11-20T15:02:09.865Z,9.45
2022-11-20T15:04:47.281Z,9.93
2022-11-20T15:07:25.913Z,10.65
2022-11-20T15:10:08.599Z,9.07
2022-11-20T15:12:38.642Z,10.38
2022-11-20T15:15:06.782Z,10.48
2022-11-20T15:17:39.090Z,11.25
2022-11-20T15:20:14.198Z,10.80
2022-11-20T15:22:46.015Z,11.13
2022-11-20T15:25:17.765Z,11.50
2022-11-20T15:27:45.680Z,10.73
2022-11-20T15:30:20.880Z,11.38
2022-11-20T15:32:50.163Z,10.52
2022-11-20T15:37:43.334Z,12.27
2022-11-20T15:40:10.740Z,14.68
2022-11-20T15:42:37.587Z,12.77
2022-11-20T15:45:06.900Z,11.63
2022-11-20T15:53:23.812Z,13.15
2022-11-20T15:55:50.428Z,11.38
2022-11-20T15:58:20.480Z,12.50
2022-11-20T16:00:47.576Z,10.65
2022-11-20T16:03:19.518Z,11.75
2022-11-20T16:05:48.895Z,11.63
2022-11-20T16:08:15.835Z,11.70
2022-11-20T16:10:42.634Z,11.95
2022-11-20T16:13:36.369Z,11.80
2022-11-20T16:16:10.340Z,11.90
2022-11-20T16:18:36.982Z,12.93
2022-11-20T16:21:11.991Z,12.20
2022-11-20T16:23:44.457Z,11.80
2022-11-20T16:26:21.704Z,11.20
2022-11-20T16:28:50.488Z,11.38
2022-11-20T16:31:18.948Z,13.00
2022-11-20T16:33:53.227Z,13.32
2022-11-20T16:36:21.227Z,14.25
2022-11-20T16:38:47.979Z,14.65
2022-11-20T16:41:14.620Z,15.05
2022-11-20T16:43:51.776Z,13.18
2022-11-20T16:46:24.254Z,14.63
2022-11-20T16:49:11.790Z,14.35
2022-11-20T16:51:38.322Z,13.82
2022-11-20T16:54:09.988Z,16.20
2022-11-20T16:56:41.322Z,17.23
2022-11-20T16:59:07.860Z,17.00
2022-11-20T17:01:40.008Z,18.17
2022-11-20T17:04:08.739Z,17.77
2022-11-20T17:06:41.047Z,16.25
2022-11-20T17:09:10.885Z,17.98
2022-11-20T17:11:37.956Z,17.35
2022-11-20T17:14:09.560Z,17.92
2022-11-20T17:16:38.790Z,17.30
2022-11-20T17:21:36.318Z,16.60
2022-11-20T17:24:07.310Z,16.52
2022-11-20T17:26:37.215Z,16.40
2022-11-20T17:29:10.376Z,17.17
2022-11-20T17:31:38.647Z,18.17
2022-11-20T17:34:13.469Z,17.58
2022-11-20T17:36:45.032Z,17.15
2022-11-20T17:39:19.837Z,16.42
2022-11-20T17:42:08.930Z,16.23
2022-11-20T17:44:41.765Z,16.30
2022-11-20T17:47:08.715Z,17.88
2022-11-20T17:49:35.213Z,17.67
2022-11-20T17:52:01.746Z,17.08
2022-11-20T17:54:28.296Z,17.65
2022-11-20T17:57:13.359Z,14.35
2022-11-20T17:59:40.326Z,14.77
2022-11-20T18:02:14.258Z,14.02
2022-11-20T18:04:43.292Z,13.32
2022-11-20T18:07:14.604Z,11.25
2022-11-20T18:09:41.120Z,10.90
2022-11-20T18:12:07.693Z,13.20
2022-11-20T18:14:36.592Z,14.23
2022-11-20T18:17:11.238Z,17.77
2022-11-20T18:19:51.322Z,21.77
2022-11-20T18:22:29.780Z,17.83
2022-11-20T18:24:56.279Z,18.17
2022-11-20T18:27:27.416Z,18.63
2022-11-20T18:29:56.410Z,17.65
2022-11-20T18:32:25.617Z,16.92
2022-11-20T18:34:52.153Z,18.77
2022-11-20T18:37:23.435Z,18.75
2022-11-20T18:39:50.539Z,20.42
2022-11-20T18:42:36.363Z,22.08
2022-11-20T18:45:04.606Z,21.48
2022-11-20T18:47:35.684Z,21.75
2022-11-20T18:50:02.277Z,21.88
2022-11-20T18:52:30.305Z,23.02
2022-11-20T18:54:56.925Z,22.15
2022-11-20T18:57:27.946Z,20.10
2022-11-20T18:59:55.730Z,21.50
2022-11-20T19:02:22.560Z,22.73
2022-11-20T19:04:51.451Z,20.42
2022-11-20T19:07:18.386Z,17.48
2022-11-20T19:09:49.190Z,19.15
2022-11-20T19:12:16.609Z,20.17
2022-11-20T19:14:45.892Z,18.05
2022-11-20T19:19:47.562Z,18.27
2022-11-20T19:22:19.709Z,18.60
2022-11-20T19:24:48.356Z,18.50
2022-11-20T19:27:17.040Z,16.95
2022-11-20T19:29:45.904Z,16.60
2022-11-20T19:32:12.494Z,15.68
2022-11-20T19:34:41.569Z,14.55
2022-11-20T19:37:08.061Z,14.90
2022-11-20T19:39:36.292Z,15.77
2022-11-20T19:42:02.845Z,14.02
2022-11-20T19:44:32.963Z,14.18
2022-11-20T19:47:04.006Z,15.30
2022-11-20T19:49:30.637Z,15.38
2022-11-20T19:51:57.175Z,13.73
2022-11-20T19:54:23.781Z,14.10
2022-11-20T19:56:50.665Z,13.57
2022-11-20T19:59:19.811Z,13.43
2022-11-20T20:01:46.459Z,13.65
2022-11-20T20:04:13.096Z,11.95
2022-11-20T20:06:44.166Z,9.95
2022-11-20T20:09:13.757Z,9.60
2022-11-20T20:11:45.707Z,10.57
2022-11-20T20:14:16.573Z,10.27
2022-11-20T20:16:43.286Z,10.20
2022-11-20T20:19:15.094Z,12.07
2022-11-20T20:21:44.642Z,9.90
2022-11-20T20:24:13.446Z,12.73
2022-11-20T20:26:40.143Z,10.57
2022-11-20T20:29:06.752Z,9.73
2022-11-20T20:31:37.777Z,8.05
2022-11-20T20:34:05.361Z,7.28
2022-11-20T20:36:32.044Z,6.45
2022-11-20T20:39:08.141Z,6.40
2022-11-20T20:41:34.662Z,9.48
2022-11-20T20:44:20.737Z,11.40
2022-11-20T20:46:47.251Z,12.23
2022-11-20T20:49:13.751Z,12.30
2022-11-20T20:51:40.241Z,12.45
2022-11-20T20:54:06.870Z,13.95
2022-11-20T20:56:35.658Z,13.05
2022-11-20T20:59:06.447Z,11.40
2022-11-20T21:01:35.338Z,12.30
2022-11-20T21:04:04.152Z,11.07
2022-11-20T21:06:32.935Z,10.80
2022-11-20T21:09:02.152Z,10.68
2022-11-20T21:11:30.894Z,11.90
2022-11-20T21:13:57.459Z,10.43
2022-11-20T21:16:25.052Z,9.43
2022-11-20T21:18:56.198Z,9.95
2022-11-20T21:21:46.378Z,8.50
2022-11-20T21:24:15.026Z,8.38
2022-11-20T21:26:43.811Z,9.07
2022-11-20T21:29:13.940Z,9.82
2022-11-20T21:31:43.117Z,9.73
2022-11-20T21:34:18.595Z,8.32
2022-11-20T21:36:45.749Z,7.75
2022-11-20T21:39:18.905Z,8.98
2022-11-20T21:41:48.141Z,10.70
2022-11-20T21:44:34.828Z,10.55
2022-11-20T21:47:01.904Z,12.55
2022-11-20T21:49:33.259Z,11.13
2022-11-20T21:52:02.327Z,11.50
2022-11-20T21:54:31.547Z,11.48
2022-11-20T21:57:00.327Z,11.25
2022-11-20T21:59:26.900Z,10.25
2022-11-20T22:01:55.735Z,6.68
2022-11-20T22:04:24.939Z,6.82
2022-11-20T22:06:51.700Z,6.30
2022-11-20T22:09:20.529Z,7.60
2022-11-20T22:11:51.811Z,8.77
2022-11-20T22:14:21.104Z,8.52
2022-11-20T22:16:54.545Z,7.60
2022-11-20T22:19:22.839Z,8.23
2022-11-20T22:21:55.490Z,8.05
2022-11-20T22:24:23.310Z,7.50
2022-11-20T22:26:50.363Z,8.65
2022-11-20T22:29:20.855Z,10.10
2022-11-20T22:31:53.865Z,9.75
2022-11-20T22:34:20.762Z,9.77
2022-11-20T22:36:50.117Z,10.30
2022-11-20T22:39:17.589Z,9.15
2022-11-20T22:41:44.123Z,8.25
2022-11-20T22:44:16.563Z,8.52
2022-11-20T22:46:43.143Z,8.05
2022-11-20T22:49:09.919Z,8.07
2022-11-20T22:51:38.869Z,8.30
2022-11-20T22:54:06.408Z,8.95
2022-11-20T22:56:36.200Z,8.68
2022-11-20T22:59:05.463Z,9.52
2022-11-20T23:01:34.665Z,9.23
2022-11-20T23:04:05.430Z,8.73
2022-11-20T23:06:37.903Z,7.78
2022-11-20T23:09:06.228Z,8.15
2022-11-20T23:11:33.708Z,8.85
2022-11-20T23:14:03.006Z,9.35
2022-11-20T23:16:31.335Z,7.43
2022-11-20T23:19:04.560Z,7.30
2022-11-20T23:21:34.084Z,7.88
2022-11-20T23:24:03.811Z,7.20
2022-11-20T23:26:35.038Z,7.95
2022-11-20T23:29:01.900Z,8.55
2022-11-20T23:31:33.696Z,9.00
2022-11-20T23:34:00.421Z,9.23
2022-11-20T23:36:27.381Z,9.85
2022-11-20T23:38:56.733Z,9.88
2022-11-20T23:43:57.309Z,9.27
2022-11-20T23:46:23.877Z,9.85
2022-11-20T23:48:55.161Z,10.13
2022-11-20T23:51:21.774Z,10.77
2022-11-20T23:53:48.334Z,11.43
2022-11-20T23:56:15.004Z,11.55
2022-11-20T23:58:42.051Z,11.95
